Time;durP1;ratioP1;P1;durP2;ratioP2;P2;SDS_P1;SDS_P2;PMS_P1;PMS_P2;Temp;Humidity;BMP_temperature;BMP_pressure;BME280_temperature;BME280_humidity;BME280_pressure;Samples;Min_cycle;Max_cycle;Signal;HPM_P1;HPM_P2
2022/01/28 00:01:07;;;;;;;0.20;0.10;;;;;;;5.49;100.00;101419.13;5033635;28;20498;-50
2022/01/28 00:03:36;;;;;;;0.20;0.10;;;;;;;5.66;100.00;101416.66;5032480;28;20458;-50
2022/01/28 00:06:05;;;;;;;0.20;0.10;;;;;;;5.60;100.00;101424.47;5032465;28;20534;-51
2022/01/28 00:08:32;;;;;;;0.20;0.10;;;;;;;5.72;100.00;101424.59;5032449;28;20476;-50
2022/01/28 00:10:59;;;;;;;0.20;0.10;;;;;;;5.66;100.00;101440.38;5032623;28;20528;-50
2022/01/28 00:40:25;;;;;;;0.27;0.13;;;;;;;5.65;100.00;101471.16;5032114;28;20480;-50
2022/01/28 00:42:52;;;;;;;0.20;0.10;;;;;;;5.47;100.00;101472.69;5032223;28;20451;-50
2022/01/28 00:45:19;;;;;;;0.20;0.10;;;;;;;5.52;100.00;101474.53;5018471;28;20970;-49
2022/01/28 00:47:47;;;;;;;0.50;0.47;;;;;;;5.27;100.00;101464.56;5020722;28;20525;-50
2022/01/28 00:50:15;;;;;;;0.20;0.10;;;;;;;5.40;100.00;101479.66;5032367;28;20874;-50
2022/01/28 00:52:42;;;;;;;0.20;0.20;;;;;;;5.35;100.00;101484.00;5026364;28;20460;-50
2022/01/28 00:55:09;;;;;;;0.20;0.10;;;;;;;5.37;100.00;101484.00;5031974;28;20491;-50
2022/01/28 00:57:35;;;;;;;0.20;0.10;;;;;;;5.56;100.00;101486.88;5031938;28;20923;-50
2022/01/28 01:00:05;;;;;;;0.20;0.10;;;;;;;5.61;100.00;101490.41;5031867;28;20483;-50
2022/01/28 01:02:32;;;;;;;0.20;0.10;;;;;;;5.62;100.00;101497.50;5031848;28;20491;-50
2022/01/28 01:04:59;;;;;;;0.20;0.10;;;;;;;5.73;100.00;101501.97;5031775;28;20467;-50
2022/01/28 01:07:26;;;;;;;0.20;0.10;;;;;;;5.72;100.00;101503.72;5031748;28;21019;-50
2022/01/28 01:09:52;;;;;;;0.20;0.10;;;;;;;5.68;100.00;101514.25;5031687;28;20487;-50
2022/01/28 01:12:21;;;;;;;0.20;0.10;;;;;;;5.76;100.00;101507.31;5031744;28;20526;-50
2022/01/28 01:14:47;;;;;;;0.20;0.10;;;;;;;5.50;100.00;101520.19;5031738;28;20529;-50
2022/01/28 01:19:45;;;;;;;0.20;0.10;;;;;;;5.52;100.00;101537.81;5031678;28;20543;-50
2022/01/28 01:22:12;;;;;;;0.20;0.20;;;;;;;5.70;100.00;101538.88;5031806;28;20574;-50
2022/01/28 01:24:48;;;;;;;0.20;0.10;;;;;;;5.68;100.00;101535.34;5031688;28;20483;-50
2022/01/28 01:27:17;;;;;;;0.20;0.10;;;;;;;5.76;100.00;101539.84;5031496;28;20570;-50
2022/01/28 01:29:45;;;;;;;0.20;0.10;;;;;;;5.70;100.00;101552.97;5034418;28;20447;-50
2022/01/28 01:32:17;;;;;;;0.20;0.20;;;;;;;5.64;100.00;101551.16;5035246;28;20534;-50
2022/01/28 01:34:46;;;;;;;0.20;0.20;;;;;;;5.58;100.00;101550.16;5035320;28;20444;-50
2022/01/28 01:37:12;;;;;;;0.20;0.20;;;;;;;5.57;100.00;101538.75;5035115;28;20586;-50
2022/01/28 01:39:42;;;;;;;0.20;0.10;;;;;;;5.83;100.00;101549.59;5035152;28;20539;-50
2022/01/28 01:42:27;;;;;;;0.20;0.10;;;;;;;5.75;100.00;101550.34;5034767;28;20574;-49
2022/01/28 01:45:42;;;;;;;0.20;0.10;;;;;;;5.75;100.00;101553.88;5023299;28;20862;-49
2022/01/28 01:53:30;;;;;;;0.20;0.10;;;;;;;5.75;100.00;101559.16;5027467;28;20530;-49
2022/01/28 01:55:57;;;;;;;0.20;0.10;;;;;;;5.85;100.00;101581.25;5034812;28;20546;-49
2022/01/28 01:58:30;;;;;;;0.20;0.20;;;;;;;5.96;100.00;101581.44;5034619;28;20566;-50
2022/01/28 02:01:01;;;;;;;0.20;0.10;;;;;;;5.72;100.00;101580.22;5034906;28;20522;-50
2022/01/28 02:03:28;;;;;;;0.20;0.10;;;;;;;5.64;100.00;101595.97;5034735;28;20482;-50
2022/01/28 02:05:58;;;;;;;0.20;0.10;;;;;;;5.79;100.00;101595.28;5034715;28;20875;-49
2022/01/28 02:08:30;;;;;;;0.30;0.20;;;;;;;5.34;100.00;101590.28;5034689;28;20518;-50
2022/01/28 02:10:59;;;;;;;0.20;0.10;;;;;;;5.25;100.00;101592.81;5035062;28;20446;-49
2022/01/28 02:13:26;;;;;;;0.20;0.10;;;;;;;5.49;100.00;101579.97;5034602;28;20538;-49
2022/01/28 02:15:55;;;;;;;0.20;0.10;;;;;;;5.48;100.00;101579.91;5030387;28;20491;-49
2022/01/28 02:18:22;;;;;;;0.20;0.10;;;;;;;5.42;100.00;101585.13;5008523;28;20503;-49
2022/01/28 02:20:52;;;;;;;0.30;0.20;;;;;;;5.31;100.00;101577.94;5034257;28;20452;-50
2022/01/28 02:23:21;;;;;;;0.20;0.10;;;;;;;5.31;100.00;101593.75;5034432;28;20491;-50
2022/01/28 02:25:49;;;;;;;0.20;0.10;;;;;;;5.32;100.00;101576.19;5034024;28;20542;-50
2022/01/28 02:28:19;;;;;;;0.20;0.13;;;;;;;5.30;100.00;101585.84;5034300;28;20558;-50
2022/01/28 02:30:46;;;;;;;0.20;0.10;;;;;;;5.27;100.00;101578.78;5033984;28;20539;-49
2022/01/28 02:33:16;;;;;;;0.20;0.20;;;;;;;5.23;100.00;101581.38;5034162;28;20459;-49
2022/01/28 02:35:45;;;;;;;0.20;0.10;;;;;;;5.24;100.00;101584.03;5033907;28;20844;-50
2022/01/28 02:38:16;;;;;;;0.20;0.10;;;;;;;5.21;100.00;101580.47;5033904;28;20486;-49
2022/01/28 02:40:48;;;;;;;0.20;0.13;;;;;;;5.15;100.00;101578.59;5033585;28;20900;-49
2022/01/28 02:43:28;;;;;;;0.20;0.10;;;;;;;5.18;100.00;101586.56;5033926;28;20948;-50
2022/01/28 02:46:02;;;;;;;0.20;0.10;;;;;;;5.28;100.00;101587.56;5003550;28;20440;-49
2022/01/28 02:48:31;;;;;;;0.20;0.13;;;;;;;5.27;100.00;101585.81;5028512;28;20522;-49
2022/01/28 02:53:48;;;;;;;0.20;0.10;;;;;;;5.39;100.00;101585.09;5028976;28;20531;-50
2022/01/28 02:56:25;;;;;;;0.20;0.10;;;;;;;5.39;100.00;101583.34;5033786;28;20483;-49
2022/01/28 02:58:51;;;;;;;0.20;0.20;;;;;;;5.40;100.00;101577.19;5033482;28;20499;-49
2022/01/28 03:01:19;;;;;;;0.20;0.20;;;;;;;5.49;100.00;101576.44;5033398;28;20884;-50
2022/01/28 03:03:48;;;;;;;0.20;0.10;;;;;;;5.66;100.00;101590.72;5033415;28;20747;-50
2022/01/28 03:06:17;;;;;;;0.20;0.10;;;;;;;5.54;100.00;101586.19;5033501;28;20489;-49
2022/01/28 03:08:51;;;;;;;0.20;0.10;;;;;;;5.65;100.00;101597.75;5033513;28;20499;-49
2022/01/28 03:16:15;;;;;;;0.20;0.10;;;;;;;5.68;100.00;101614.47;5028951;28;20483;-50
2022/01/28 03:18:48;;;;;;;0.20;0.10;;;;;;;5.60;100.00;101612.59;5033519;28;20471;-49
2022/01/28 03:23:48;;;;;;;0.20;0.10;;;;;;;5.63;100.00;101625.88;5033068;28;21004;-49
2022/01/28 03:26:15;;;;;;;0.20;0.10;;;;;;;5.66;100.00;101635.56;5032898;28;20489;-50
2022/01/28 03:28:42;;;;;;;0.20;0.10;;;;;;;5.79;100.00;101634.84;5033343;28;20510;-49
2022/01/28 03:31:09;;;;;;;0.20;0.10;;;;;;;5.45;100.00;101635.25;5033112;28;20534;-49
2022/01/28 03:33:36;;;;;;;0.20;0.10;;;;;;;5.41;100.00;101636.09;5033189;28;20459;-49
2022/01/28 03:36:07;;;;;;;0.20;0.10;;;;;;;5.37;100.00;101642.19;5032950;28;20482;-49
2022/01/28 03:38:34;;;;;;;0.20;0.10;;;;;;;5.38;100.00;101634.31;5032613;28;20507;-50
2022/01/28 03:41:01;;;;;;;0.20;0.10;;;;;;;5.49;100.00;101640.63;5032947;28;20534;-49
2022/01/28 03:43:28;;;;;;;0.20;0.13;;;;;;;5.51;100.00;101656.47;5032883;28;20475;-50
2022/01/28 03:45:54;;;;;;;0.20;0.10;;;;;;;5.32;100.00;101661.44;5002221;28;20798;-50
2022/01/28 03:48:21;;;;;;;0.20;0.10;;;;;;;5.30;100.00;101665.81;5026368;28;21047;-49
2022/01/28 03:50:50;;;;;;;0.20;0.10;;;;;;;5.47;100.00;101673.97;5006433;28;20479;-50
2022/01/28 03:53:17;;;;;;;0.20;0.10;;;;;;;5.22;100.00;101675.38;5026716;28;20480;-50
2022/01/28 03:55:45;;;;;;;0.20;0.10;;;;;;;5.36;100.00;101683.50;5032607;28;20551;-49
2022/01/28 03:58:13;;;;;;;0.20;0.10;;;;;;;5.39;100.00;101686.16;5032375;28;20554;-50
2022/01/28 04:00:39;;;;;;;0.20;0.10;;;;;;;5.51;100.00;101688.09;5032580;28;20448;-50
2022/01/28 04:03:37;;;;;;;0.20;0.20;;;;;;;5.53;100.00;101689.88;5032268;28;20557;-49
2022/01/28 04:11:32;;;;;;;0.20;0.10;;;;;;;5.45;100.00;101711.72;5032127;28;20937;-50
2022/01/28 04:14:42;;;;;;;0.20;0.10;;;;;;;5.50;100.00;101716.22;5032281;28;20478;-50
2022/01/28 04:19:33;;;;;;;0.20;0.10;;;;;;;5.42;100.00;101717.84;5032325;28;20471;-50
2022/01/28 04:22:00;;;;;;;0.20;0.10;;;;;;;5.49;100.00;101717.09;5032201;28;20484;-50
2022/01/28 04:24:27;;;;;;;0.20;0.10;;;;;;;5.42;100.00;101716.97;5032036;28;20488;-50
2022/01/28 04:26:53;;;;;;;0.20;0.10;;;;;;;5.52;100.00;101719.78;5032368;28;20556;-50
2022/01/28 04:29:20;;;;;;;0.30;0.27;;;;;;;5.48;100.00;101719.69;5032132;28;20957;-50
2022/01/28 04:31:47;;;;;;;0.20;0.10;;;;;;;5.55;100.00;101714.53;5032432;28;20487;-50
2022/01/28 04:34:16;;;;;;;0.20;0.10;;;;;;;5.58;100.00;101716.31;5032189;28;21024;-50
2022/01/28 04:37:31;;;;;;;0.20;0.10;;;;;;;5.47;100.00;101720.53;5032105;28;20870;-50
2022/01/28 04:44:40;;;;;;;0.20;0.10;;;;;;;5.32;100.00;101714.16;5023801;28;21036;-50
2022/01/28 04:47:15;;;;;;;0.20;0.10;;;;;;;5.33;100.00;101720.31;5017482;28;21024;-50
2022/01/28 04:55:26;;;;;;;0.20;0.10;;;;;;;5.27;100.00;101729.03;5032294;28;21023;-51
2022/01/28 04:58:11;;;;;;;0.20;0.13;;;;;;;5.20;100.00;101739.44;5032135;28;20566;-50
2022/01/28 05:27:44;;;;;;;0.20;0.10;;;;;;;5.31;100.00;101766.88;5033012;28;20510;-50
2022/01/28 05:30:11;;;;;;;0.20;0.10;;;;;;;5.31;99.95;101765.13;5035645;28;20485;-50
2022/01/28 05:32:38;;;;;;;0.20;0.20;;;;;;;5.35;100.00;101766.97;5035083;28;20448;-50
2022/01/28 05:35:05;;;;;;;0.20;0.10;;;;;;;5.55;99.34;101777.81;5035159;28;20483;-50
2022/01/28 05:37:32;;;;;;;0.20;0.10;;;;;;;5.51;100.00;101783.03;5029473;28;20545;-50
2022/01/28 05:39:59;;;;;;;0.20;0.10;;;;;;;5.43;100.00;101780.25;5027608;28;20451;-51
2022/01/28 05:42:25;;;;;;;0.20;0.10;;;;;;;5.49;99.72;101775.09;5029956;28;20484;-51
2022/01/28 05:44:53;;;;;;;0.20;0.10;;;;;;;5.37;99.94;101769.63;5015772;28;20528;-51
2022/01/28 05:47:21;;;;;;;0.20;0.10;;;;;;;5.58;98.79;101776.97;5020258;28;20554;-50
2022/01/28 05:49:47;;;;;;;0.20;0.10;;;;;;;5.42;99.15;101782.88;5034699;28;20483;-50
2022/01/28 05:52:14;;;;;;;0.20;0.10;;;;;;;5.39;99.21;101783.72;5029375;28;20455;-50
2022/01/28 05:54:40;;;;;;;0.20;0.10;;;;;;;5.50;99.36;101781.25;5034995;28;20539;-50
2022/01/28 05:57:07;;;;;;;0.20;0.10;;;;;;;5.37;99.64;101782.81;5034686;28;20470;-50
2022/01/28 05:59:33;;;;;;;0.20;0.10;;;;;;;5.43;99.74;101782.00;5034719;28;20498;-50
2022/01/28 06:02:00;;;;;;;0.20;0.10;;;;;;;5.37;99.54;101797.75;5034621;28;20488;-50
2022/01/28 06:04:28;;;;;;;0.20;0.10;;;;;;;5.50;99.53;101792.69;5034702;28;20451;-51
2022/01/28 06:06:55;;;;;;;0.20;0.10;;;;;;;5.42;99.37;101796.94;5034709;28;20503;-50
2022/01/28 06:09:21;;;;;;;0.20;0.10;;;;;;;5.71;97.46;101793.88;5034739;28;20483;-50
2022/01/28 06:11:48;;;;;;;0.20;0.10;;;;;;;5.71;98.24;101800.06;5034782;28;20486;-51
2022/01/28 06:14:14;;;;;;;0.20;0.10;;;;;;;5.57;97.93;101805.09;5033955;28;20542;-51
2022/01/28 06:16:41;;;;;;;0.20;0.10;;;;;;;5.79;97.55;101805.47;5020919;28;20539;-50
2022/01/28 06:19:07;;;;;;;0.20;0.10;;;;;;;5.53;97.22;101819.13;5034214;28;20507;-50
2022/01/28 06:21:34;;;;;;;0.20;0.10;;;;;;;5.63;97.78;101812.25;5034427;28;20484;-51
2022/01/28 06:24:01;;;;;;;0.20;0.17;;;;;;;5.68;97.38;101820.22;5034296;28;20526;-51
2022/01/28 06:26:27;;;;;;;0.30;0.10;;;;;;;5.68;97.76;101817.59;5034488;28;20480;-50
2022/01/28 06:28:54;;;;;;;0.20;0.10;;;;;;;5.58;97.87;101806.88;5033942;28;20475;-51
2022/01/28 06:31:20;;;;;;;0.20;0.10;;;;;;;5.73;97.60;101821.19;5034118;28;20510;-51
2022/01/28 06:33:48;;;;;;;13.07;1.13;;;;;;;5.87;96.41;101823.16;5033327;28;20450;-51
2022/01/28 06:36:15;;;;;;;0.20;0.10;;;;;;;5.95;95.67;101823.31;5022126;28;20490;-51
2022/01/28 06:38:42;;;;;;;0.20;0.10;;;;;;;5.84;96.31;101835.44;5033020;28;20532;-51
2022/01/28 06:41:08;;;;;;;0.20;0.10;;;;;;;5.75;97.03;101835.28;5021769;28;20538;-51
2022/01/28 06:43:38;;;;;;;0.20;0.10;;;;;;;5.70;96.87;101832.56;5032355;28;20859;-51
2022/01/28 06:46:05;;;;;;;0.20;0.10;;;;;;;5.78;96.00;101844.16;5015958;28;20508;-51
2022/01/28 06:48:31;;;;;;;0.20;0.10;;;;;;;5.78;96.07;101844.16;5015156;28;20473;-51
2022/01/28 06:50:58;;;;;;;0.20;0.10;;;;;;;5.84;97.38;101856.53;5034241;28;20479;-51
2022/01/28 06:53:25;;;;;;;0.20;0.10;;;;;;;5.67;97.09;101866.81;5033697;28;20480;-51
2022/01/28 06:55:52;;;;;;;0.20;0.20;;;;;;;5.57;98.48;101865.78;5033881;28;20487;-51
2022/01/28 06:58:18;;;;;;;0.20;0.10;;;;;;;5.67;96.89;101866.81;5033596;28;20499;-50
2022/01/28 07:00:45;;;;;;;0.20;0.10;;;;;;;5.58;97.74;101866.66;5033663;28;20550;-51
2022/01/28 07:03:14;;;;;;;0.20;0.10;;;;;;;5.60;97.45;101875.47;5033684;28;20509;-51
2022/01/28 07:05:41;;;;;;;0.20;0.10;;;;;;;5.67;97.17;101890.56;5033951;28;20883;-51
2022/01/28 07:08:09;;;;;;;0.20;0.10;;;;;;;5.63;97.60;101880.81;5033511;28;20565;-51
2022/01/28 07:10:36;;;;;;;0.20;0.10;;;;;;;5.72;96.89;101886.25;5033315;28;20851;-50
2022/01/28 07:13:02;;;;;;;0.20;0.10;;;;;;;5.69;97.74;101877.41;5033263;28;20539;-50
2022/01/28 07:15:30;;;;;;;0.20;0.10;;;;;;;5.74;96.60;101873.06;5032447;28;20451;-51
2022/01/28 07:18:01;;;;;;;0.20;0.17;;;;;;;5.81;96.82;101880.25;5029661;28;20500;-51
2022/01/28 07:20:29;;;;;;;0.20;0.20;;;;;;;5.81;97.16;101882.88;5033534;28;20483;-51
2022/01/28 07:22:56;;;;;;;0.20;0.10;;;;;;;5.82;96.43;101882.91;5033068;28;20500;-51
2022/01/28 07:25:22;;;;;;;0.20;0.10;;;;;;;5.84;96.49;101891.72;5033044;28;20535;-51
2022/01/28 07:27:49;;;;;;;0.20;0.10;;;;;;;5.84;96.78;101897.00;5032407;28;20550;-51
2022/01/28 07:30:16;;;;;;;0.20;0.10;;;;;;;6.04;97.40;101909.69;5033237;28;21047;-51
2022/01/28 07:32:42;;;;;;;0.20;0.10;;;;;;;6.01;96.70;101910.50;5032829;28;20983;-49
2022/01/28 07:35:11;;;;;;;0.20;0.10;;;;;;;5.82;96.66;101903.13;5033021;28;20455;-50
2022/01/28 07:37:38;;;;;;;0.20;0.10;;;;;;;5.80;96.63;101904.84;5033581;28;20522;-49
2022/01/28 07:40:06;;;;;;;0.20;0.10;;;;;;;5.98;96.73;101913.09;5032984;28;20941;-49
2022/01/28 07:42:35;;;;;;;0.20;0.10;;;;;;;5.91;96.69;101911.25;5015359;28;20863;-50
2022/01/28 07:45:04;;;;;;;0.20;0.10;;;;;;;5.82;97.48;101919.84;5020061;28;20813;-50
2022/01/28 07:47:30;;;;;;;0.20;0.10;;;;;;;6.04;96.99;101922.88;5016451;28;20485;-49
2022/01/28 07:49:57;;;;;;;0.20;0.10;;;;;;;5.95;97.23;101920.97;5016301;28;20548;-51
2022/01/28 07:52:23;;;;;;;0.20;0.10;;;;;;;5.99;97.30;101924.53;5006472;28;20483;-51
2022/01/28 07:54:50;;;;;;;0.20;0.10;;;;;;;5.84;97.51;101927.78;5032554;28;20448;-51
2022/01/28 07:57:17;;;;;;;0.20;0.10;;;;;;;5.91;97.34;101927.97;5015123;28;20526;-51
2022/01/28 07:59:44;;;;;;;0.20;0.10;;;;;;;6.19;97.11;101937.22;5032340;28;20491;-51
2022/01/28 08:02:11;;;;;;;0.20;0.10;;;;;;;6.00;97.09;101927.19;5032516;28;20483;-50
2022/01/28 08:04:38;;;;;;;0.20;0.10;;;;;;;6.14;96.13;101930.06;5032381;28;20502;-51
2022/01/28 08:07:05;;;;;;;0.20;0.10;;;;;;;6.16;96.50;101942.41;5032372;28;20478;-50
2022/01/28 08:09:32;;;;;;;0.20;0.10;;;;;;;6.07;97.21;101937.00;5032432;28;20506;-51
2022/01/28 08:11:59;;;;;;;0.20;0.13;;;;;;;6.07;98.32;101944.94;5034247;28;20486;-51
2022/01/28 08:14:27;;;;;;;0.20;0.10;;;;;;;5.92;98.54;101940.28;5033878;28;20479;-51
2022/01/28 08:16:55;;;;;;;0.20;0.10;;;;;;;6.02;99.63;101951.88;5028044;28;20511;-51
2022/01/28 08:19:22;;;;;;;0.20;0.10;;;;;;;5.88;99.94;101946.31;5032311;28;20574;-51
2022/01/28 08:21:49;;;;;;;0.20;0.10;;;;;;;5.80;100.00;101958.50;5032558;28;20491;-50
2022/01/28 08:24:15;;;;;;;0.20;0.10;;;;;;;5.82;100.00;101945.34;5032947;28;20506;-50
2022/01/28 08:26:42;;;;;;;0.20;0.10;;;;;;;5.90;100.00;101956.97;5032720;28;20470;-51
2022/01/28 08:29:09;;;;;;;0.20;0.10;;;;;;;5.80;100.00;101952.34;5032418;28;21031;-52
2022/01/28 08:31:36;;;;;;;0.20;0.10;;;;;;;5.93;100.00;101971.09;5032984;28;20538;-51
2022/01/28 08:34:03;;;;;;;0.20;0.10;;;;;;;5.94;99.99;101972.88;5032594;28;20452;-51
2022/01/28 08:36:30;;;;;;;0.20;0.20;;;;;;;5.97;100.00;101976.41;5032188;28;21008;-51
2022/01/28 08:38:57;;;;;;;0.20;0.10;;;;;;;5.91;100.00;101980.75;5035376;28;20901;-50
2022/01/28 08:41:24;;;;;;;0.20;0.10;;;;;;;6.07;99.85;101979.25;5036483;28;20455;-50
2022/01/28 08:43:53;;;;;;;0.20;0.10;;;;;;;6.06;99.96;101985.41;5015717;28;20603;-51
2022/01/28 08:46:20;;;;;;;0.20;0.10;;;;;;;6.29;100.00;101985.75;5018642;28;20511;-51
2022/01/28 08:48:47;;;;;;;0.30;0.20;;;;;;;6.15;99.26;101989.91;5033051;28;20478;-51
2022/01/28 08:51:15;;;;;;;0.20;0.10;;;;;;;6.33;99.81;101981.44;5033273;28;20485;-51
2022/01/28 08:53:42;;;;;;;0.20;0.10;;;;;;;6.24;99.64;101988.34;5020096;28;20824;-51
2022/01/28 08:56:09;;;;;;;0.20;0.10;;;;;;;6.19;99.58;101989.13;5036170;28;20476;-51
2022/01/28 08:58:35;;;;;;;0.20;0.10;;;;;;;6.43;99.42;101989.50;5035664;28;20517;-50
2022/01/28 09:01:03;;;;;;;0.20;0.10;;;;;;;6.24;99.28;101990.97;5036935;28;20531;-49
2022/01/28 09:03:30;;;;;;;0.20;0.10;;;;;;;6.45;98.78;101995.72;5018263;28;20499;-50
2022/01/28 09:05:56;;;;;;;0.20;0.20;;;;;;;6.53;98.40;102007.28;5035666;28;20937;-48
2022/01/28 09:08:23;;;;;;;0.20;0.10;;;;;;;6.64;97.98;101999.53;5035638;28;20522;-50
2022/01/28 09:11:28;;;;;;;0.20;0.10;;;;;;;6.42;98.17;102007.97;5036054;28;20801;-49
2022/01/28 09:13:46;;;;;;;0.20;0.10;;;;;;;6.28;98.99;102007.75;5011948;28;20490;-49
2022/01/28 09:16:13;;;;;;;0.20;0.10;;;;;;;6.44;98.17;102011.53;5029718;28;20491;-49
2022/01/28 09:18:40;;;;;;;0.20;0.10;;;;;;;6.47;97.96;102015.13;5018127;28;20467;-50
2022/01/28 09:21:06;;;;;;;0.20;0.10;;;;;;;6.57;98.38;102015.25;5035486;28;20538;-51
2022/01/28 09:23:33;;;;;;;0.20;0.20;;;;;;;6.71;97.23;102024.28;5035431;28;20522;-50
2022/01/28 09:26:01;;;;;;;0.20;0.20;;;;;;;6.49;97.26;102031.00;5035006;28;20483;-49
2022/01/28 09:28:27;;;;;;;0.20;0.10;;;;;;;6.65;97.26;102026.84;5017630;28;20503;-50
2022/01/28 09:30:54;;;;;;;0.20;0.20;;;;;;;6.66;96.98;102024.22;5034941;28;20490;-50
2022/01/28 09:33:21;;;;;;;0.20;0.10;;;;;;;6.60;97.26;102018.84;5035350;28;20475;-50
2022/01/28 09:35:48;;;;;;;0.20;0.10;;;;;;;6.77;97.28;102024.38;5035096;28;20483;-51
2022/01/28 09:38:16;;;;;;;0.20;0.20;;;;;;;6.70;97.94;102022.50;5034879;28;20507;-51
2022/01/28 09:40:43;;;;;;;0.20;0.10;;;;;;;6.78;96.89;102029.69;5035004;28;20494;-51
2022/01/28 09:43:09;;;;;;;0.20;0.10;;;;;;;6.92;95.70;102037.81;5017590;28;20915;-52
2022/01/28 09:45:36;;;;;;;0.20;0.10;;;;;;;6.79;97.16;102043.78;5019520;28;20505;-51
2022/01/28 09:48:03;;;;;;;0.30;0.23;;;;;;;6.87;96.45;102039.53;5026026;28;20483;-51
2022/01/28 09:50:32;;;;;;;0.20;0.10;;;;;;;7.06;94.91;102035.38;5034079;28;20486;-51
2022/01/28 09:52:59;;;;;;;0.77;0.77;;;;;;;6.80;95.10;102035.00;5029137;28;20483;-51
2022/01/28 09:55:27;;;;;;;0.20;0.20;;;;;;;6.98;95.54;102029.06;5034722;28;20451;-51
2022/01/28 09:58:02;;;;;;;0.20;0.10;;;;;;;6.96;96.06;102030.81;5034689;28;20563;-51
2022/01/28 10:00:32;;;;;;;0.20;0.10;;;;;;;7.03;95.42;102043.28;5034611;28;20443;-51
2022/01/28 10:03:03;;;;;;;0.20;0.10;;;;;;;7.04;95.61;102045.94;5034598;28;20491;-52
2022/01/28 10:05:34;;;;;;;0.20;0.10;;;;;;;7.05;96.06;102046.81;5034755;28;20837;-51
2022/01/28 10:08:09;;;;;;;0.20;0.10;;;;;;;7.16;94.50;102036.41;5034205;28;20506;-51
2022/01/28 10:10:56;;;;;;;0.20;0.20;;;;;;;7.14;95.44;102046.97;5034647;28;20454;-51
2022/01/28 10:16:04;;;;;;;0.20;0.10;;;;;;;7.15;95.91;102048.72;5029403;28;20858;-51
2022/01/28 10:18:51;;;;;;;0.20;0.10;;;;;;;7.27;95.98;102043.63;5034405;28;20499;-51
2022/01/28 10:21:23;;;;;;;0.20;0.20;;;;;;;7.33;95.08;102045.44;5034408;28;20486;-51
2022/01/28 10:24:07;;;;;;;0.20;0.20;;;;;;;7.43;94.76;102050.88;5016647;28;20570;-51
2022/01/28 10:26:43;;;;;;;0.20;0.10;;;;;;;7.52;94.45;102054.47;5009214;28;20539;-51
2022/01/28 10:29:14;;;;;;;0.20;0.10;;;;;;;7.49;94.41;102055.34;5016414;28;20509;-51
2022/01/28 10:31:48;;;;;;;0.20;0.10;;;;;;;7.53;92.92;102054.50;5034362;28;20476;-51
2022/01/28 10:34:20;;;;;;;0.20;0.20;;;;;;;7.56;93.25;102058.97;5033926;28;20534;-50
2022/01/28 10:36:49;;;;;;;0.20;0.20;;;;;;;7.61;92.50;102052.84;5033725;28;20490;-51
2022/01/28 10:39:22;;;;;;;0.20;0.20;;;;;;;7.58;93.86;102062.50;5017261;28;20479;-51
2022/01/28 10:41:59;;;;;;;0.20;0.20;;;;;;;7.63;93.20;102061.69;5033946;28;20968;-51
2022/01/28 10:44:27;;;;;;;0.20;0.20;;;;;;;7.69;92.04;102056.47;5026394;28;20519;-51
2022/01/28 10:46:57;;;;;;;0.20;0.10;;;;;;;7.72;91.80;102055.63;5017600;28;20519;-50
2022/01/28 10:49:32;;;;;;;0.20;0.20;;;;;;;7.73;91.71;102052.09;5033772;28;20447;-51
2022/01/28 10:52:14;;;;;;;0.20;0.10;;;;;;;7.81;90.42;102063.69;5028002;28;20952;-51
2022/01/28 10:54:42;;;;;;;0.20;0.20;;;;;;;8.02;89.50;102060.38;5033800;28;20531;-51
2022/01/28 10:57:10;;;;;;;0.20;0.10;;;;;;;7.92;87.55;102056.72;5033402;28;20479;-50
2022/01/28 10:59:40;;;;;;;0.30;0.20;;;;;;;8.05;86.38;102059.50;5033692;28;20848;-50
2022/01/28 11:02:07;;;;;;;0.30;0.20;;;;;;;8.12;85.41;102062.25;5032815;28;20847;-50
2022/01/28 11:04:34;;;;;;;0.30;0.20;;;;;;;8.28;85.12;102048.25;5033242;28;20519;-51
2022/01/28 11:07:03;;;;;;;0.30;0.20;;;;;;;8.56;84.78;102048.53;5033536;28;20479;-50
2022/01/28 11:09:30;;;;;;;0.30;0.17;;;;;;;8.37;84.05;102047.50;5033728;28;20476;-51
2022/01/28 11:12:00;;;;;;;0.30;0.20;;;;;;;8.53;83.16;102049.41;5033265;28;20483;-51
2022/01/28 11:14:27;;;;;;;0.30;0.20;;;;;;;8.66;84.25;102047.75;5033288;28;20475;-51
2022/01/28 11:16:53;;;;;;;0.30;0.20;;;;;;;8.76;85.32;102038.06;5028457;28;20471;-51
2022/01/28 11:19:22;;;;;;;0.30;0.20;;;;;;;8.56;86.40;102044.13;5033096;28;20884;-52
2022/01/28 11:22:03;;;;;;;0.30;0.20;;;;;;;8.83;85.15;102050.50;5033248;28;20487;-51
2022/01/28 11:25:00;;;;;;;0.30;0.20;;;;;;;8.98;84.99;102050.59;5032928;28;20577;-51
2022/01/28 11:27:33;;;;;;;1.47;1.40;;;;;;;8.72;84.27;102049.53;5032803;28;20468;-51
2022/01/28 11:30:18;;;;;;;0.30;0.20;;;;;;;8.76;83.79;102057.50;5033221;28;20527;-51
2022/01/28 11:33:04;;;;;;;0.30;0.20;;;;;;;8.71;82.02;102056.59;5015424;28;20451;-51
2022/01/28 11:35:34;;;;;;;0.30;0.20;;;;;;;8.46;81.41;102055.50;5033460;28;21003;-51
2022/01/28 11:38:21;;;;;;;0.30;0.20;;;;;;;8.73;80.10;102052.19;5015574;28;20511;-51
2022/01/28 11:41:11;;;;;;;0.30;0.20;;;;;;;8.68;80.63;102045.09;5032832;28;20451;-54
2022/01/28 11:43:57;;;;;;;0.30;0.20;;;;;;;8.47;81.12;102044.03;5031738;28;20528;-52
2022/01/28 11:46:27;;;;;;;0.30;0.20;;;;;;;8.78;80.04;102039.00;5015195;28;20452;-52
2022/01/28 11:48:57;;;;;;;0.30;0.20;;;;;;;8.89;78.59;102038.16;5030548;28;21036;-52
2022/01/28 11:51:45;;;;;;;0.30;0.20;;;;;;;8.86;81.64;102032.84;5029031;28;20491;-52
2022/01/28 11:54:18;;;;;;;0.30;0.20;;;;;;;8.72;80.39;102023.91;5009892;28;20483;-52
2022/01/28 11:56:55;;;;;;;0.30;0.20;;;;;;;8.71;81.61;102026.56;5032326;28;20450;-51
2022/01/28 11:59:26;;;;;;;0.30;0.20;;;;;;;8.73;81.24;102035.41;5032618;28;20518;-52
2022/01/28 12:01:52;;;;;;;0.30;0.20;;;;;;;8.67;81.25;102035.38;5032514;28;20432;-52
2022/01/28 12:04:25;;;;;;;0.30;0.20;;;;;;;8.86;81.30;102024.00;5032422;28;20566;-52
2022/01/28 12:06:58;;;;;;;0.30;0.20;;;;;;;9.02;81.11;102009.06;5032152;28;20880;-52
2022/01/28 12:09:26;;;;;;;0.37;0.37;;;;;;;9.09;81.04;102008.25;5032477;28;20960;-51
2022/01/28 12:11:53;;;;;;;0.30;0.20;;;;;;;9.09;79.87;102018.84;5006084;28;20448;-52
2022/01/28 12:14:49;;;;;;;0.30;0.20;;;;;;;9.01;79.41;102016.13;5032270;28;20510;-52
2022/01/28 12:17:31;;;;;;;0.30;0.20;;;;;;;9.26;79.37;102018.94;5027515;28;20471;-52
2022/01/28 12:20:12;;;;;;;0.30;0.20;;;;;;;9.31;77.89;102014.50;5032576;28;20952;-52
2022/01/28 12:23:01;;;;;;;0.30;0.20;;;;;;;8.86;78.04;102016.06;5033263;28;20458;-52
2022/01/28 12:25:37;;;;;;;0.30;0.20;;;;;;;9.09;78.18;102022.38;5032252;28;20574;-52
2022/01/28 12:28:36;;;;;;;0.30;0.20;;;;;;;8.97;78.00;102019.66;5032444;28;20597;-52
2022/01/28 12:31:06;;;;;;;0.30;0.20;;;;;;;8.99;76.97;102011.72;4978720;28;20459;-52
2022/01/28 12:33:36;;;;;;;0.30;0.20;;;;;;;9.07;77.31;102016.19;5032202;28;20448;-51
2022/01/28 12:36:07;;;;;;;0.30;0.30;;;;;;;8.95;77.51;102009.94;5031977;28;20452;-52
2022/01/28 12:38:42;;;;;;;0.30;0.20;;;;;;;8.91;78.06;102001.06;5031918;28;20483;-52
2022/01/28 12:41:12;;;;;;;0.30;0.20;;;;;;;8.84;77.98;101997.47;5032103;28;20537;-52
2022/01/28 12:43:39;;;;;;;0.30;0.20;;;;;;;8.93;78.26;102009.91;5030690;28;20452;-52
2022/01/28 12:46:09;;;;;;;0.30;0.20;;;;;;;8.78;77.29;102013.38;5014138;28;20960;-52
2022/01/28 12:48:44;;;;;;;0.30;0.20;;;;;;;8.66;79.14;102025.66;5027267;28;20467;-52
2022/01/28 12:51:14;;;;;;;0.30;0.20;;;;;;;8.60;80.09;102010.56;5029931;28;20454;-52
2022/01/28 12:53:47;;;;;;;0.30;0.20;;;;;;;8.79;78.64;102016.91;5029599;28;20475;-51
2022/01/28 12:56:17;;;;;;;0.30;0.20;;;;;;;8.78;77.85;102010.72;5032103;28;20531;-52
2022/01/28 12:58:49;;;;;;;0.30;0.20;;;;;;;8.93;76.40;102020.53;5014443;28;20464;-52
2022/01/28 13:01:18;;;;;;;0.30;0.20;;;;;;;9.03;76.08;102021.44;5031991;28;20546;-52
2022/01/28 13:03:54;;;;;;;0.30;0.20;;;;;;;8.82;78.02;102020.47;5006247;28;20488;-52
2022/01/28 13:09:12;;;;;;;0.30;0.20;;;;;;;8.72;78.08;102008.00;5031802;28;20487;-52
2022/01/28 13:11:54;;;;;;;0.30;0.20;;;;;;;8.91;78.35;102011.69;5031668;28;20455;-52
2022/01/28 13:14:21;;;;;;;0.30;0.20;;;;;;;9.17;77.86;102015.34;5031823;28;20534;-52
2022/01/28 13:16:49;;;;;;;0.30;0.20;;;;;;;9.18;77.08;102005.59;5026983;28;20932;-52
2022/01/28 13:19:16;;;;;;;0.30;0.20;;;;;;;9.16;76.73;102010.91;5032005;28;20460;-51